Time;durP1;ratioP1;P1;durP2;ratioP2;P2;SDS_P1;SDS_P2;PMS_P1;PMS_P2;Temp;Humidity;BMP_temperature;BMP_pressure;BME280_temperature;BME280_humidity;BME280_pressure;Samples;Min_cycle;Max_cycle;Signal;HPM_P1;HPM_P2
2022/04/05 00:02:10;;;;;;;6.13;5.53;;;11.10;79.90;;;;;;5010885;28;20096;-47
2022/04/05 00:04:39;;;;;;;5.18;4.68;;;11.10;80.20;;;;;;5028242;28;20041;-47
2022/04/05 00:07:06;;;;;;;5.68;5.18;;;11.10;80.00;;;;;;5029605;28;20503;-46
2022/04/05 00:09:33;;;;;;;5.68;5.07;;;11.10;80.10;;;;;;5010902;28;20811;-49
2022/04/05 00:12:03;;;;;;;6.03;5.47;;;11.10;80.10;;;;;;5000598;28;20061;-50
2022/04/05 00:14:31;;;;;;;5.97;5.22;;;11.20;80.20;;;;;;5015589;28;20053;-50
2022/04/05 00:16:57;;;;;;;6.22;5.25;;;11.20;80.30;;;;;;5023601;28;20696;-50
2022/04/05 00:19:26;;;;;;;5.93;5.43;;;11.20;80.40;;;;;;5015982;28;20046;-46
2022/04/05 00:21:54;;;;;;;5.10;4.65;;;11.20;80.40;;;;;;5024501;28;20567;-47
2022/04/05 00:24:25;;;;;;;5.00;4.55;;;11.20;80.40;;;;;;5029807;28;20042;-50
2022/04/05 00:26:55;;;;;;;6.50;5.45;;;11.20;80.50;;;;;;5029095;28;20521;-46
2022/04/05 00:29:24;;;;;;;5.32;4.82;;;11.20;80.50;;;;;;5010245;28;20066;-48
2022/04/05 00:31:51;;;;;;;6.03;5.53;;;11.20;80.50;;;;;;5020774;28;20045;-48
2022/04/05 00:34:24;;;;;;;4.97;4.53;;;11.30;80.50;;;;;;5024180;28;20049;-47
2022/04/05 00:36:57;;;;;;;5.65;4.75;;;11.30;80.60;;;;;;5011400;28;20510;-46
2022/04/05 00:39:23;;;;;;;5.35;4.85;;;11.30;80.70;;;;;;5008661;28;20057;-46
2022/04/05 00:41:50;;;;;;;5.78;5.28;;;11.40;80.60;;;;;;5028054;28;20045;-50
2022/04/05 00:44:19;;;;;;;5.40;4.90;;;11.30;81.20;;;;;;5028408;28;20434;-46
2022/04/05 00:46:51;;;;;;;5.55;4.90;;;11.30;80.60;;;;;;5013685;28;20045;-50
2022/04/05 00:49:31;;;;;;;5.72;5.13;;;11.40;80.80;;;;;;5023959;28;20041;-50
2022/04/05 00:51:59;;;;;;;5.18;4.30;;;11.40;81.10;;;;;;5029358;28;20509;-46
2022/04/05 00:54:28;;;;;;;5.18;4.60;;;11.40;80.70;;;;;;5029211;28;20045;-50
2022/04/05 00:56:56;;;;;;;5.07;4.60;;;11.40;80.80;;;;;;5004135;28;20046;-50
2022/04/05 00:59:29;;;;;;;5.15;4.65;;;11.40;80.80;;;;;;5012889;28;20076;-51
2022/04/05 01:01:56;;;;;;;5.43;4.93;;;11.40;80.80;;;;;;5029386;28;20049;-49
2022/04/05 01:04:24;;;;;;;5.28;4.68;;;11.40;80.80;;;;;;5019703;28;20134;-46
2022/04/05 01:06:53;;;;;;;5.40;4.35;;;11.50;80.90;;;;;;5018387;28;20628;-51
2022/04/05 01:09:21;;;;;;;5.25;4.75;;;11.50;80.90;;;;;;5027592;28;20049;-49
2022/04/05 01:11:48;;;;;;;4.97;4.50;;;11.50;81.00;;;;;;5011331;28;20034;-50
2022/04/05 01:14:16;;;;;;;5.13;4.63;;;11.50;81.00;;;;;;5004637;28;20042;-47
2022/04/05 01:16:43;;;;;;;6.10;4.78;;;11.50;81.00;;;;;;5007329;28;20046;-50
2022/04/05 01:19:09;;;;;;;5.00;4.53;;;11.50;81.00;;;;;;5021933;28;20045;-48
2022/04/05 01:21:38;;;;;;;6.72;4.88;;;11.50;81.10;;;;;;5020212;28;20046;-49
2022/04/05 01:24:14;;;;;;;5.82;5.32;;;11.50;81.10;;;;;;5010972;28;20042;-48
2022/04/05 01:26:44;;;;;;;5.75;4.97;;;11.60;81.50;;;;;;5013017;28;20037;-48
2022/04/05 01:29:15;;;;;;;5.00;4.60;;;11.60;81.20;;;;;;5030048;28;20139;-50
2022/04/05 01:31:45;;;;;;;5.30;4.80;;;11.60;81.30;;;;;;5030665;28;20556;-49
2022/04/05 01:34:15;;;;;;;5.32;4.82;;;11.60;81.30;;;;;;5007334;28;20042;-49
2022/04/05 01:36:46;;;;;;;5.90;5.20;;;11.60;81.20;;;;;;5024525;28;20053;-50
2022/04/05 01:39:21;;;;;;;5.50;5.00;;;11.60;81.20;;;;;;5030220;28;20045;-50
2022/04/05 01:41:57;;;;;;;5.68;5.05;;;11.70;81.30;;;;;;5013333;28;20049;-49
2022/04/05 01:44:26;;;;;;;5.05;4.55;;;11.70;81.50;;;;;;5015226;28;20045;-50
2022/04/05 01:46:53;;;;;;;5.70;5.15;;;11.70;81.40;;;;;;5028155;28;20038;-50
2022/04/05 01:49:20;;;;;;;6.32;5.25;;;11.70;81.30;;;;;;5012492;28;20045;-50
2022/04/05 01:51:47;;;;;;;6.28;5.65;;;11.70;81.40;;;;;;5030889;28;20038;-49
2022/04/05 01:54:17;;;;;;;5.72;5.13;;;11.80;81.40;;;;;;5004596;28;20046;-47
2022/04/05 01:56:49;;;;;;;6.03;5.50;;;11.80;81.50;;;;;;5023271;28;20273;-50
2022/04/05 01:59:21;;;;;;;5.88;5.22;;;11.80;81.50;;;;;;5030147;28;20041;-50
2022/04/05 02:01:48;;;;;;;6.22;5.63;;;11.80;81.50;;;;;;5016977;28;20467;-50
2022/04/05 02:04:16;;;;;;;6.55;5.60;;;11.80;81.50;;;;;;5028029;28;20050;-50
2022/04/05 02:06:44;;;;;;;8.27;7.07;;;11.80;81.50;;;;;;5028759;28;20040;-50
2022/04/05 02:09:14;;;;;;;8.25;7.45;;;11.90;81.60;;;;;;5007683;28;20038;-49
2022/04/05 02:11:44;;;;;;;9.57;8.15;;;11.90;81.60;;;;;;5005927;28;20046;-50
2022/04/05 02:14:24;;;;;;;10.30;8.60;;;11.90;81.70;;;;;;4985314;28;20042;-48
2022/04/05 02:16:54;;;;;;;10.38;8.93;;;11.90;82.20;;;;;;5002336;28;20287;-48
2022/04/05 02:19:24;;;;;;;10.93;9.48;;;11.90;81.80;;;;;;5011542;28;20045;-49
2022/04/05 02:21:55;;;;;;;11.07;9.57;;;11.90;82.30;;;;;;5007707;28;20418;-48
2022/04/05 02:24:23;;;;;;;14.60;12.38;;;12.00;81.80;;;;;;4993169;28;20048;-49
2022/04/05 02:26:51;;;;;;;15.25;12.38;;;12.00;81.80;;;;;;5026974;28;20128;-46
2022/04/05 02:29:21;;;;;;;16.92;13.15;;;12.00;81.80;;;;;;5011946;28;20104;-46
2022/04/05 02:31:56;;;;;;;19.85;15.45;;;12.00;81.90;;;;;;5009449;28;20038;-47
2022/04/05 02:34:24;;;;;;;17.67;15.27;;;12.10;81.90;;;;;;5005840;28;20057;-48
2022/04/05 02:36:59;;;;;;;20.60;16.70;;;12.10;82.00;;;;;;5011300;28;20136;-50
2022/04/05 02:39:25;;;;;;;18.58;16.20;;;12.10;82.00;;;;;;5011738;28;20055;-50
2022/04/05 02:41:57;;;;;;;24.67;20.25;;;12.10;82.00;;;;;;4990342;28;20050;-50
2022/04/05 02:44:24;;;;;;;23.38;19.30;;;12.20;82.00;;;;;;5024473;28;20062;-47
2022/04/05 02:46:57;;;;;;;25.20;20.20;;;12.20;82.00;;;;;;5028486;28;20049;-46
2022/04/05 02:49:27;;;;;;;29.80;24.33;;;12.20;82.00;;;;;;4996452;28;20049;-50
2022/04/05 02:51:55;;;;;;;32.17;25.77;;;12.20;82.00;;;;;;5008761;28;20060;-50
2022/04/05 02:54:29;;;;;;;28.40;23.23;;;12.20;82.00;;;;;;5012014;28;20683;-49
2022/04/05 02:57:01;;;;;;;28.58;23.63;;;12.30;82.10;;;;;;5002137;28;20068;-49
2022/04/05 02:59:28;;;;;;;21.48;19.08;;;12.30;82.00;;;;;;5003479;28;20136;-50
2022/04/05 03:01:55;;;;;;;21.98;18.33;;;12.30;82.00;;;;;;5012244;28;20053;-48
2022/04/05 03:04:26;;;;;;;15.38;13.05;;;12.30;82.00;;;;;;5011718;28;20050;-47
2022/04/05 03:06:53;;;;;;;17.40;15.10;;;12.30;82.20;;;;;;4994743;28;20038;-47
2022/04/05 03:09:23;;;;;;;16.85;14.63;;;12.40;82.10;;;;;;4992447;28;20037;-50
2022/04/05 03:11:54;;;;;;;15.73;13.82;;;12.40;82.20;;;;;;5006653;28;20034;-46
2022/04/05 03:14:25;;;;;;;13.52;12.15;;;12.40;82.10;;;;;;4993658;28;20054;-50
2022/04/05 03:16:56;;;;;;;15.43;13.77;;;12.40;82.10;;;;;;5003492;28;20041;-50
2022/04/05 03:19:27;;;;;;;11.98;10.77;;;12.40;82.10;;;;;;5030836;28;20412;-50
2022/04/05 03:21:54;;;;;;;9.60;8.65;;;12.50;82.10;;;;;;5027345;28;20042;-49
2022/04/05 03:24:21;;;;;;;10.90;8.68;;;12.50;82.20;;;;;;5022635;28;20042;-47
2022/04/05 03:26:48;;;;;;;9.90;8.15;;;12.50;82.20;;;;;;4996390;28;20042;-50
2022/04/05 03:29:20;;;;;;;9.38;8.20;;;12.50;82.20;;;;;;5021671;28;20042;-48
2022/04/05 03:31:48;;;;;;;10.20;9.07;;;12.50;82.30;;;;;;5007130;28;20050;-46
2022/04/05 03:34:17;;;;;;;11.18;9.40;;;12.50;82.20;;;;;;5010973;28;20046;-50
2022/04/05 03:36:44;;;;;;;11.77;10.00;;;12.60;82.30;;;;;;4996204;28;20050;-47
2022/04/05 03:39:14;;;;;;;12.68;10.27;;;12.60;82.30;;;;;;5006530;28;20058;-51
2022/04/05 03:41:43;;;;;;;12.20;10.30;;;12.60;82.40;;;;;;5010186;28;20560;-50
2022/04/05 03:44:10;;;;;;;13.35;10.15;;;12.60;82.40;;;;;;5005099;28;20095;-50
2022/04/05 03:46:41;;;;;;;13.10;10.82;;;12.60;82.30;;;;;;4991670;28;20502;-50
2022/04/05 03:49:09;;;;;;;13.38;11.45;;;12.60;82.30;;;;;;5003229;28;20511;-47
2022/04/05 03:51:40;;;;;;;12.03;10.73;;;12.60;82.30;;;;;;5011718;28;20469;-50
2022/04/05 03:54:08;;;;;;;15.00;12.77;;;12.70;82.30;;;;;;5004565;28;20077;-50
2022/04/05 03:56:39;;;;;;;14.82;12.43;;;12.60;82.30;;;;;;5007441;28;20069;-48
2022/04/05 03:59:11;;;;;;;15.10;11.98;;;12.70;82.20;;;;;;5006918;28;20140;-51
2022/04/05 04:01:38;;;;;;;15.43;12.90;;;12.70;82.20;;;;;;5009710;28;20525;-50
2022/04/05 04:04:08;;;;;;;13.65;11.40;;;12.70;82.20;;;;;;5001299;28;20068;-49
2022/04/05 04:06:36;;;;;;;16.30;13.15;;;12.70;82.20;;;;;;5008782;28;20042;-50
2022/04/05 04:09:04;;;;;;;18.00;13.65;;;12.80;82.30;;;;;;4994612;28;20069;-51
2022/04/05 04:11:32;;;;;;;16.75;13.13;;;12.70;82.20;;;;;;4992252;28;20362;-51
2022/04/05 04:13:59;;;;;;;16.17;12.77;;;12.70;82.30;;;;;;4982065;28;20038;-51
2022/04/05 04:16:28;;;;;;;16.92;12.60;;;12.80;82.40;;;;;;5002748;28;20119;-50
2022/04/05 04:18:57;;;;;;;16.98;12.75;;;12.70;82.30;;;;;;5022472;28;20050;-51
2022/04/05 04:21:28;;;;;;;15.57;12.07;;;12.80;82.30;;;;;;5014663;28;20448;-50
2022/04/05 04:23:56;;;;;;;15.40;12.63;;;12.80;82.40;;;;;;5010615;28;20046;-49
2022/04/05 04:26:23;;;;;;;16.38;14.23;;;12.70;82.40;;;;;;5022178;28;20044;-46
2022/04/05 04:28:57;;;;;;;15.95;13.40;;;12.80;82.40;;;;;;5027809;28;20045;-50
2022/04/05 04:31:26;;;;;;;17.60;14.07;;;12.80;82.40;;;;;;5022234;28;20037;-49
2022/04/05 04:33:53;;;;;;;15.65;13.05;;;12.80;82.40;;;;;;5020336;28;20100;-46
2022/04/05 04:36:21;;;;;;;16.95;13.90;;;12.80;82.40;;;;;;5010415;28;20104;-50
2022/04/05 04:38:50;;;;;;;16.00;13.57;;;12.80;82.40;;;;;;5000240;28;20052;-46
2022/04/05 04:41:17;;;;;;;14.35;12.90;;;12.80;82.30;;;;;;5009388;28;20434;-48
2022/04/05 04:43:44;;;;;;;21.45;14.77;;;12.80;82.30;;;;;;5011929;28;20084;-47
2022/04/05 04:46:11;;;;;;;16.42;14.05;;;12.80;82.40;;;;;;5012269;28;20433;-48
2022/04/05 04:48:38;;;;;;;18.17;14.55;;;12.80;82.40;;;;;;5008690;28;20502;-49
2022/04/05 04:51:04;;;;;;;17.27;15.20;;;12.80;82.30;;;;;;5010572;28;20041;-50
2022/04/05 04:53:31;;;;;;;17.67;14.57;;;12.80;82.40;;;;;;5018173;28;20041;-45
2022/04/05 04:55:58;;;;;;;18.50;14.20;;;12.80;82.40;;;;;;5014863;28;20041;-46
2022/04/05 04:58:34;;;;;;;17.30;14.38;;;12.80;82.40;;;;;;5006770;28;20053;-47
2022/04/05 05:01:01;;;;;;;20.45;15.48;;;12.80;82.30;;;;;;5008090;28;20037;-46
2022/04/05 05:03:30;;;;;;;17.23;14.95;;;12.80;82.30;;;;;;5016573;28;20467;-47
2022/04/05 05:05:57;;;;;;;20.23;15.32;;;12.80;82.30;;;;;;5014931;28;20046;-46
2022/04/05 05:08:24;;;;;;;17.85;15.25;;;12.80;82.30;;;;;;5011462;28;20830;-47
2022/04/05 05:10:51;;;;;;;19.73;14.85;;;12.80;82.30;;;;;;5019023;28;20049;-49
2022/04/05 05:13:20;;;;;;;16.75;13.65;;;12.80;82.40;;;;;;5011286;28;20757;-47
2022/04/05 05:15:49;;;;;;;15.98;14.05;;;12.80;82.40;;;;;;5015526;28;20046;-46
2022/04/05 05:18:16;;;;;;;18.25;14.48;;;12.80;82.40;;;;;;5015529;28;20046;-46
2022/04/05 05:20:43;;;;;;;18.20;13.98;;;12.80;82.40;;;;;;4996328;28;20100;-45
2022/04/05 05:23:09;;;;;;;20.63;15.48;;;12.80;82.40;;;;;;5016633;28;20038;-48
2022/04/05 05:25:37;;;;;;;18.52;14.80;;;12.80;82.40;;;;;;5009560;28;20052;-45
2022/04/05 05:28:06;;;;;;;21.55;16.55;;;12.80;82.40;;;;;;5010340;28;20137;-46
2022/04/05 05:30:33;;;;;;;18.98;15.43;;;12.80;82.40;;;;;;5016727;28;20540;-46
2022/04/05 05:33:00;;;;;;;19.90;15.27;;;12.80;82.50;;;;;;5019449;28;20080;-48
2022/04/05 05:35:27;;;;;;;15.98;14.05;;;12.80;82.50;;;;;;5010510;28;20091;-48
2022/04/05 05:37:54;;;;;;;17.35;14.82;;;12.90;82.60;;;;;;5008276;28;20057;-45
2022/04/05 05:40:20;;;;;;;18.08;15.15;;;12.90;82.70;;;;;;5017150;28;20099;-46
2022/04/05 05:42:57;;;;;;;18.13;14.55;;;12.90;82.60;;;;;;5015253;28;20402;-48
2022/04/05 05:45:25;;;;;;;17.23;14.02;;;12.90;82.60;;;;;;5009413;28;20042;-47
2022/04/05 05:47:53;;;;;;;17.60;14.45;;;12.90;83.20;;;;;;5011106;28;20042;-46
2022/04/05 05:50:20;;;;;;;15.25;13.15;;;12.90;82.60;;;;;;5011006;28;20037;-45
2022/04/05 05:52:47;;;;;;;14.98;12.93;;;12.90;82.50;;;;;;5012126;28;20060;-48
2022/04/05 05:55:16;;;;;;;16.55;13.48;;;12.90;82.50;;;;;;5010951;28;20054;-46
2022/04/05 05:57:43;;;;;;;14.80;13.20;;;12.90;82.50;;;;;;5008105;28;20042;-45
2022/04/05 06:00:17;;;;;;;16.13;13.30;;;12.90;82.50;;;;;;5013815;28;20037;-46
2022/04/05 06:02:45;;;;;;;14.23;12.30;;;12.90;82.60;;;;;;5009475;28;20568;-47
2022/04/05 06:05:13;;;;;;;15.45;13.02;;;12.90;82.50;;;;;;5006490;28;20044;-46
2022/04/05 06:07:42;;;;;;;16.77;12.73;;;12.90;82.60;;;;;;5024226;28;20045;-46
2022/04/05 06:10:10;;;;;;;14.40;11.88;;;12.90;82.60;;;;;;5014439;28;20482;-47
2022/04/05 06:12:39;;;;;;;14.05;12.05;;;12.90;82.60;;;;;;5024621;28;20107;-46
2022/04/05 06:15:09;;;;;;;12.77;10.50;;;12.90;82.70;;;;;;5012887;28;20129;-46
2022/04/05 06:17:44;;;;;;;12.32;10.95;;;12.90;82.70;;;;;;5003050;28;20527;-47
2022/04/05 06:20:14;;;;;;;11.55;10.32;;;12.90;82.90;;;;;;5010906;28;20053;-46
2022/04/05 06:22:45;;;;;;;11.52;9.98;;;12.90;82.70;;;;;;5008520;28;20050;-48
2022/04/05 06:25:16;;;;;;;11.43;9.23;;;13.00;82.70;;;;;;5010938;28;20041;-47
2022/04/05 06:27:43;;;;;;;9.82;8.75;;;12.90;82.80;;;;;;5004387;28;20045;-47
2022/04/05 06:30:12;;;;;;;10.50;9.32;;;13.00;82.80;;;;;;5029606;28;20042;-48
2022/04/05 06:32:39;;;;;;;11.43;8.77;;;12.90;82.70;;;;;;5012534;28;20513;-48
2022/04/05 06:35:08;;;;;;;9.95;8.40;;;13.00;82.80;;;;;;5016682;28;20115;-46
2022/04/05 06:37:38;;;;;;;10.57;8.05;;;12.90;82.70;;;;;;5020089;28;20104;-47
2022/04/05 06:40:07;;;;;;;9.17;7.83;;;13.00;82.80;;;;;;5029267;28;20103;-50
2022/04/05 06:42:35;;;;;;;8.27;7.40;;;13.00;82.80;;;;;;5017727;28;20515;-49
2022/04/05 06:45:06;;;;;;;9.43;7.93;;;13.00;82.80;;;;;;5020744;28;20052;-49
2022/04/05 06:47:33;;;;;;;8.85;7.93;;;13.00;82.80;;;;;;5024361;28;20433;-46
2022/04/05 06:49:59;;;;;;;9.30;7.90;;;13.00;82.80;;;;;;5025382;28;20111;-49
2022/04/05 06:52:26;;;;;;;9.00;8.10;;;13.00;82.80;;;;;;5009305;28;20041;-47
2022/04/05 06:54:53;;;;;;;9.70;8.25;;;13.00;82.80;;;;;;5019300;28;20395;-47
2022/04/05 06:57:20;;;;;;;9.60;8.52;;;13.00;82.80;;;;;;5025243;28;20111;-48
2022/04/05 06:59:49;;;;;;;10.57;8.93;;;13.00;82.70;;;;;;5030347;28;20056;-46
2022/04/05 07:02:16;;;;;;;12.93;10.50;;;13.00;82.70;;;;;;5016700;28;20104;-50
2022/04/05 07:04:43;;;;;;;10.27;9.13;;;13.00;83.30;;;;;;5018539;28;20049;-46
2022/04/05 07:07:09;;;;;;;12.82;10.13;;;13.00;82.70;;;;;;5017114;28;20038;-49
2022/04/05 07:09:37;;;;;;;14.10;10.75;;;13.00;82.70;;;;;;5003465;28;20037;-46
2022/04/05 07:12:07;;;;;;;12.30;10.82;;;13.00;82.70;;;;;;5023310;28;20053;-46
2022/04/05 07:14:34;;;;;;;13.02;10.65;;;13.00;82.70;;;;;;5024693;28;20048;-49
2022/04/05 07:17:00;;;;;;;15.23;11.95;;;13.00;82.70;;;;;;5028164;28;20099;-45
2022/04/05 07:19:27;;;;;;;13.50;10.48;;;13.00;82.80;;;;;;5031618;28;20100;-46
2022/04/05 07:21:54;;;;;;;15.77;12.10;;;13.00;82.80;;;;;;5020435;28;20478;-45
2022/04/05 07:24:21;;;;;;;15.50;12.27;;;13.00;82.90;;;;;;5025428;28;20095;-48
2022/04/05 07:26:48;;;;;;;14.10;12.48;;;13.00;83.00;;;;;;5032498;28;20045;-46
2022/04/05 07:29:15;;;;;;;13.00;11.60;;;13.10;83.10;;;;;;5023229;28;20049;-47
2022/04/05 07:31:41;;;;;;;13.98;12.20;;;13.10;83.20;;;;;;5019198;28;20095;-46
2022/04/05 07:34:08;;;;;;;17.35;13.35;;;13.10;83.20;;;;;;5025236;28;20043;-46
2022/04/05 07:36:35;;;;;;;16.73;12.20;;;13.10;83.60;;;;;;5023449;28;20096;-45
2022/04/05 07:39:02;;;;;;;16.63;12.75;;;13.10;83.10;;;;;;5021035;28;20169;-46
2022/04/05 07:41:29;;;;;;;15.48;12.68;;;13.20;83.10;;;;;;5022827;28;20061;-45
2022/04/05 07:43:56;;;;;;;17.65;13.88;;;13.20;83.10;;;;;;5025549;28;20046;-45
2022/04/05 07:46:23;;;;;;;16.27;14.13;;;13.20;83.00;;;;;;5018609;28;20042;-46
2022/04/05 07:48:50;;;;;;;16.20;13.95;;;13.20;82.90;;;;;;5017797;28;20564;-48
2022/04/05 07:51:17;;;;;;;16.38;13.43;;;13.20;82.90;;;;;;5022993;28;20037;-45
2022/04/05 07:53:44;;;;;;;16.95;13.48;;;13.20;82.80;;;;;;5024690;28;20516;-45
2022/04/05 07:56:13;;;;;;;16.17;12.93;;;13.20;82.90;;;;;;5027623;28;20053;-46
2022/04/05 07:58:42;;;;;;;16.65;13.88;;;13.20;82.80;;;;;;5019428;28;20126;-48
2022/04/05 08:01:10;;;;;;;16.48;13.27;;;13.20;83.00;;;;;;5022518;28;20029;-48
2022/04/05 08:03:38;;;;;;;16.02;13.80;;;13.20;83.20;;;;;;5021714;28;20051;-45
2022/04/05 08:06:05;;;;;;;17.52;13.15;;;13.30;83.20;;;;;;5012615;28;20045;-48
2022/04/05 08:08:32;;;;;;;13.38;11.85;;;13.30;83.10;;;;;;5003992;28;20105;-46
2022/04/05 08:11:19;;;;;;;14.32;12.65;;;13.30;82.90;;;;;;5015165;28;20160;-47
2022/04/05 08:13:48;;;;;;;15.15;13.55;;;13.40;82.80;;;;;;5023049;28;20046;-46
2022/04/05 08:16:15;;;;;;;15.80;12.27;;;13.40;82.90;;;;;;5016016;28;20049;-45
2022/04/05 08:18:42;;;;;;;15.32;12.85;;;13.40;83.00;;;;;;5017776;28;20037;-45
2022/04/05 08:21:09;;;;;;;14.07;12.68;;;13.40;83.00;;;;;;5015759;28;20054;-46
2022/04/05 08:23:36;;;;;;;15.73;12.18;;;13.50;82.80;;;;;;5006390;28;20123;-47
2022/04/05 08:26:03;;;;;;;14.52;12.55;;;13.40;82.80;;;;;;5018316;28;20051;-46
2022/04/05 08:28:30;;;;;;;13.85;12.35;;;13.50;82.50;;;;;;5009468;28;20030;-45
2022/04/05 08:30:57;;;;;;;16.08;12.77;;;13.50;82.60;;;;;;5017983;28;20034;-49
2022/04/05 08:33:24;;;;;;;16.60;12.35;;;13.50;82.70;;;;;;5026137;28;20513;-46
2022/04/05 08:35:51;;;;;;;13.95;12.50;;;13.50;82.50;;;;;;5016500;28;20096;-47
2022/04/05 08:38:18;;;;;;;17.52;12.55;;;13.50;83.20;;;;;;5015126;28;20069;-46
2022/04/05 08:40:45;;;;;;;13.52;12.10;;;13.50;82.60;;;;;;5021779;28;20046;-45
2022/04/05 08:43:11;;;;;;;14.35;12.68;;;13.50;82.70;;;;;;5015989;28;20893;-45
2022/04/05 08:45:49;;;;;;;15.27;12.88;;;13.60;82.70;;;;;;5015106;28;20060;-46
2022/04/05 08:48:17;;;;;;;17.10;13.48;;;13.60;82.70;;;;;;5007207;28;20049;-47
2022/04/05 08:50:44;;;;;;;15.95;13.95;;;13.60;82.50;;;;;;5011932;28;20034;-45
2022/04/05 08:53:11;;;;;;;15.90;13.80;;;13.60;82.60;;;;;;5011442;28;20041;-46
2022/04/05 08:55:41;;;;;;;17.13;13.50;;;13.60;83.60;;;;;;5007863;28;20685;-46
2022/04/05 08:58:08;;;;;;;15.25;13.65;;;13.60;83.20;;;;;;5011428;28;20042;-47
2022/04/05 09:00:35;;;;;;;16.27;14.40;;;13.70;83.40;;;;;;5012147;28;20052;-46
2022/04/05 09:03:04;;;;;;;20.92;14.80;;;13.70;83.80;;;;;;5013110;28;20042;-47
2022/04/05 09:05:35;;;;;;;17.13;13.93;;;13.70;83.60;;;;;;5009611;28;21797;-45
2022/04/05 09:08:30;;;;;;;17.27;14.68;;;13.80;83.60;;;;;;5016414;28;20037;-46
2022/04/05 09:11:03;;;;;;;17.92;15.55;;;13.90;83.90;;;;;;5030629;28;20037;-46
2022/04/05 09:13:31;;;;;;;19.35;16.02;;;13.90;83.80;;;;;;5018461;28;20033;-47
2022/04/05 09:15:59;;;;;;;20.60;16.92;;;14.00;83.60;;;;;;5018337;28;20498;-46
2022/04/05 09:18:34;;;;;;;21.08;18.70;;;14.00;83.30;;;;;;5017474;28;20123;-46
2022/04/05 09:21:03;;;;;;;20.50;17.38;;;14.10;83.30;;;;;;5011312;28;20052;-46
2022/04/05 09:23:35;;;;;;;22.63;18.70;;;14.10;83.40;;;;;;5011340;28;20072;-48
2022/04/05 09:26:07;;;;;;;18.73;16.67;;;14.20;83.30;;;;;;5022442;28;20041;-46
2022/04/05 09:28:37;;;;;;;20.95;17.38;;;14.30;83.60;;;;;;5025817;28;20037;-45
2022/04/05 09:31:07;;;;;;;21.00;17.77;;;14.30;83.60;;;;;;5019852;28;20037;-48
2022/04/05 09:33:37;;;;;;;17.05;15.23;;;14.40;83.90;;;;;;5019159;28;20049;-48
2022/04/05 09:36:10;;;;;;;17.80;15.05;;;14.60;83.60;;;;;;4997150;28;20054;-47
2022/04/05 09:38:39;;;;;;;16.65;13.70;;;14.60;83.50;;;;;;5011765;28;20060;-47
2022/04/05 09:41:10;;;;;;;15.77;14.07;;;14.70;83.40;;;;;;5013670;28;20042;-46
2022/04/05 09:43:37;;;;;;;16.05;14.45;;;14.70;83.10;;;;;;4995147;28;20057;-45
2022/04/05 09:46:05;;;;;;;14.98;12.75;;;14.80;83.20;;;;;;5016394;28;20526;-47
2022/04/05 09:48:35;;;;;;;14.60;12.95;;;14.90;82.70;;;;;;5010408;28;20042;-46
2022/04/05 09:51:14;;;;;;;13.45;12.05;;;14.90;82.50;;;;;;5001011;28;20042;-46
2022/04/05 09:53:47;;;;;;;14.43;11.82;;;15.00;82.10;;;;;;5014808;28;20050;-46
2022/04/05 09:56:18;;;;;;;13.80;12.38;;;15.10;82.40;;;;;;4990667;28;20046;-47
2022/04/05 09:58:50;;;;;;;16.70;12.35;;;15.00;82.10;;;;;;4998987;28;20042;-46
2022/04/05 10:01:23;;;;;;;15.32;12.45;;;15.10;82.50;;;;;;5007284;28;20103;-49
2022/04/05 10:04:05;;;;;;;12.27;11.05;;;15.10;82.70;;;;;;5021789;28;20045;-49
2022/04/05 10:06:38;;;;;;;13.70;11.07;;;15.20;82.40;;;;;;5024183;28;20045;-46
2022/04/05 10:09:06;;;;;;;13.38;12.07;;;15.30;81.30;;;;;;5016071;28;20038;-50
2022/04/05 10:11:35;;;;;;;13.18;11.85;;;15.30;80.80;;;;;;5016226;28;20053;-51
2022/04/05 10:14:03;;;;;;;13.77;12.10;;;15.30;80.30;;;;;;5022748;28;20055;-51
2022/04/05 10:16:31;;;;;;;12.32;11.10;;;15.20;79.90;;;;;;5006197;28;20457;-49
2022/04/05 10:19:12;;;;;;;13.00;11.60;;;15.20;79.60;;;;;;5017398;28;20561;-51
2022/04/05 10:21:43;;;;;;;14.63;12.48;;;15.10;79.70;;;;;;5021077;28;20052;-49
2022/04/05 10:24:11;;;;;;;12.73;11.43;;;15.10;79.60;;;;;;5022026;28;20084;-49
2022/04/05 10:26:41;;;;;;;13.95;12.15;;;15.00;79.80;;;;;;5011714;28;20142;-49
2022/04/05 10:29:14;;;;;;;15.32;12.38;;;15.00;80.10;;;;;;5020164;28;20049;-49
2022/04/05 10:31:42;;;;;;;14.30;12.82;;;15.00;80.80;;;;;;5009161;28;20038;-53
2022/04/05 10:34:28;;;;;;;14.82;13.23;;;14.90;81.00;;;;;;5015670;28;20065;-51
2022/04/05 10:37:17;;;;;;;13.05;11.75;;;14.90;80.60;;;;;;5009805;28;20052;-48
2022/04/05 10:40:10;;;;;;;13.65;12.00;;;14.90;80.50;;;;;;5006428;28;20104;-51
2022/04/05 10:42:38;;;;;;;13.50;12.07;;;14.90;80.40;;;;;;5003655;28;20597;-49
2022/04/05 10:45:21;;;;;;;13.68;12.25;;;14.90;80.30;;;;;;5008559;28;20049;-52
2022/04/05 10:48:02;;;;;;;15.00;12.43;;;14.90;80.60;;;;;;5006420;28;20522;-54
2022/04/05 10:51:02;;;;;;;13.82;11.60;;;14.90;81.00;;;;;;5010621;28;20072;-54
2022/04/05 10:53:35;;;;;;;13.20;11.90;;;14.90;81.30;;;;;;5015703;28;20045;-49
2022/04/05 10:56:06;;;;;;;;;;;14.90;81.50;;;;;;5006641;28;20525;-53
2022/04/05 10:58:35;;;;;;;16.02;10.75;;;15.00;81.70;;;;;;5011112;28;19925;-50
2022/04/05 11:01:22;;;;;;;14.93;12.35;;;15.00;81.80;;;;;;5009143;28;20560;-49
2022/04/05 11:04:16;;;;;;;13.90;12.32;;;15.10;82.90;;;;;;5008564;28;20042;-50
2022/04/05 11:07:05;;;;;;;13.02;10.68;;;15.20;83.40;;;;;;5005537;28;20034;-49
2022/04/05 11:09:35;;;;;;;13.57;12.18;;;15.30;82.60;;;;;;5001526;28;20042;-51
2022/04/05 11:12:04;;;;;;;13.48;12.13;;;15.50;82.40;;;;;;5020335;28;20050;-53
2022/04/05 11:15:03;;;;;;;12.60;11.10;;;15.50;82.10;;;;;;5014140;28;20045;-49
2022/04/05 11:17:32;;;;;;;14.50;11.13;;;15.60;81.00;;;;;;5003456;28;20585;-52
2022/04/05 11:20:00;;;;;;;11.50;10.40;;;15.80;81.10;;;;;;4991907;28;20038;-50
2022/04/05 11:22:33;;;;;;;11.38;10.38;;;15.90;80.90;;;;;;5009460;28;20049;-51
2022/04/05 11:25:06;;;;;;;9.82;8.88;;;16.00;80.70;;;;;;5005351;28;20041;-54
2022/04/05 11:27:42;;;;;;;11.18;8.65;;;16.10;78.90;;;;;;5010499;28;20038;-53
2022/04/05 11:30:37;;;;;;;12.57;8.82;;;16.10;78.30;;;;;;5011821;28;20034;-52
2022/04/05 11:33:09;;;;;;;9.80;8.88;;;16.20;77.60;;;;;;5007375;28;20046;-50
2022/04/05 11:35:59;;;;;;;9.55;8.70;;;16.20;76.90;;;;;;5007187;28;20097;-52
2022/04/05 11:38:26;;;;;;;11.50;10.43;;;16.10;76.10;;;;;;5010980;28;20045;-51
2022/04/05 11:41:02;;;;;;;12.80;11.60;;;16.10;75.90;;;;;;5012891;28;20044;-54
2022/04/05 11:43:34;;;;;;;13.30;12.00;;;16.00;75.90;;;;;;5009028;28;20553;-51
2022/04/05 11:46:14;;;;;;;12.63;11.38;;;15.90;75.80;;;;;;5024670;28;20042;-53
2022/04/05 11:48:50;;;;;;;11.90;10.77;;;15.80;75.70;;;;;;5029377;28;20045;-51
2022/04/05 11:51:23;;;;;;;11.15;10.05;;;15.70;76.20;;;;;;5032818;28;20037;-53
2022/04/05 11:54:28;;;;;;;11.55;10.45;;;15.70;76.70;;;;;;5008637;28;20402;-50
2022/04/05 11:57:03;;;;;;;11.52;10.32;;;15.70;77.10;;;;;;5012728;28;20073;-50
2022/04/05 11:59:31;;;;;;;11.00;9.90;;;15.60;77.50;;;;;;5032385;28;20045;-50
2022/04/05 12:01:58;;;;;;;12.77;9.35;;;15.70;77.60;;;;;;5030906;28;20120;-49
2022/04/05 12:04:25;;;;;;;10.15;9.23;;;15.70;77.60;;;;;;5011867;28;20092;-51
2022/04/05 12:07:01;;;;;;;8.68;7.88;;;15.70;77.80;;;;;;5021132;28;20038;-54
2022/04/05 12:09:28;;;;;;;8.48;7.75;;;15.70;77.60;;;;;;5032301;28;20467;-53
2022/04/05 12:12:08;;;;;;;9.07;8.27;;;15.80;77.60;;;;;;5013073;28;20092;-53
2022/04/05 12:14:35;;;;;;;8.85;8.05;;;15.80;77.20;;;;;;4959501;28;20041;-53
2022/04/05 12:17:03;;;;;;;8.40;7.68;;;15.80;77.10;;;;;;4997818;28;20038;-50
2022/04/05 12:19:42;;;;;;;7.63;6.93;;;15.90;76.80;;;;;;4999300;28;20057;-49
2022/04/05 12:22:12;;;;;;;8.23;7.47;;;15.90;76.20;;;;;;5003060;28;20555;-54
2022/04/05 12:24:50;;;;;;;8.77;7.85;;;15.90;76.60;;;;;;4996771;28;20069;-52
2022/04/05 12:27:23;;;;;;;8.63;7.75;;;15.90;75.60;;;;;;5005774;28;20041;-55
2022/04/05 12:30:05;;;;;;;10.13;7.55;;;15.90;75.10;;;;;;4989411;28;20038;-53
2022/04/05 12:32:35;;;;;;;8.82;8.02;;;15.90;75.60;;;;;;5011744;28;20387;-49
2022/04/05 12:35:09;;;;;;;8.10;7.40;;;15.90;75.90;;;;;;4994901;28;20042;-51
2022/04/05 12:37:41;;;;;;;7.50;6.80;;;15.90;76.10;;;;;;4992322;28;20057;-52
2022/04/05 12:40:23;;;;;;;7.53;6.82;;;16.00;76.00;;;;;;4994499;28;20161;-52
2022/04/05 12:42:52;;;;;;;7.95;7.18;;;15.90;75.70;;;;;;5012379;28;20048;-53
2022/04/05 12:45:30;;;;;;;6.75;6.03;;;16.00;75.70;;;;;;4982812;28;20501;-53
2022/04/05 12:48:18;;;;;;;7.65;6.88;;;16.00;75.10;;;;;;4998212;28;20137;-49
2022/04/05 12:50:59;;;;;;;7.45;6.85;;;16.00;75.10;;;;;;4985375;28;20056;-49